sensor_id;sensor_type;location;lat;lon;timestamp;pressure;altitude;pressure_sealevel;temperature;humidity
65557;BME280;52200;53.490;14.376;2023-02-19T00:00:26;101228.06;;;2.52;100.00
65557;BME280;52200;53.490;14.376;2023-02-19T00:02:52;101217.06;;;2.42;100.00
65557;BME280;52200;53.490;14.376;2023-02-19T00:05:17;101216.09;;;2.34;100.00
65557;BME280;52200;53.490;14.376;2023-02-19T00:07:43;101221.34;;;2.49;100.00
65557;BME280;52200;53.490;14.376;2023-02-19T00:10:08;101226.44;;;2.54;100.00
65557;BME280;52200;53.490;14.376;2023-02-19T00:12:33;101227.81;;;2.35;100.00
65557;BME280;52200;53.490;14.376;2023-02-19T00:14:59;101219.19;;;2.17;100.00
65557;BME280;52200;53.490;14.376;2023-02-19T00:17:24;101222.09;;;2.44;100.00
65557;BME280;52200;53.490;14.376;2023-02-19T00:19:49;101224.66;;;2.47;99.75
65557;BME280;52200;53.490;14.376;2023-02-19T00:22:15;101225.47;;;2.44;100.00
65557;BME280;52200;53.490;14.376;2023-02-19T00:24:40;101226.16;;;2.35;100.00
65557;BME280;52200;53.490;14.376;2023-02-19T00:27:06;101218.06;;;2.53;99.78
65557;BME280;52200;53.490;14.376;2023-02-19T00:29:31;101217.75;;;2.32;99.61
65557;BME280;52200;53.490;14.376;2023-02-19T00:31:56;101221.06;;;2.31;99.96
65557;BME280;52200;53.490;14.376;2023-02-19T00:34:22;101220.47;;;2.46;100.00
65557;BME280;52200;53.490;14.376;2023-02-19T00:36:47;101221.25;;;2.43;99.87
65557;BME280;52200;53.490;14.376;2023-02-19T00:39:14;101220.22;;;2.30;99.75
65557;BME280;52200;53.490;14.376;2023-02-19T00:41:40;101220.25;;;2.32;100.00
65557;BME280;52200;53.490;14.376;2023-02-19T00:44:07;101229.41;;;2.30;100.00
65557;BME280;52200;53.490;14.376;2023-02-19T00:46:36;101220.97;;;2.24;100.00
65557;BME280;52200;53.490;14.376;2023-02-19T00:49:02;101214.34;;;2.28;100.00
65557;BME280;52200;53.490;14.376;2023-02-19T00:51:30;101211.22;;;2.43;100.00
65557;BME280;52200;53.490;14.376;2023-02-19T00:53:57;101203.78;;;2.48;100.00
65557;BME280;52200;53.490;14.376;2023-02-19T00:56:22;101210.53;;;2.52;98.69
65557;BME280;52200;53.490;14.376;2023-02-19T00:58:48;101212.94;;;2.47;99.44
65557;BME280;52200;53.490;14.376;2023-02-19T01:01:14;101207.28;;;2.59;98.83
65557;BME280;52200;53.490;14.376;2023-02-19T01:03:40;101211.41;;;2.57;98.18
65557;BME280;52200;53.490;14.376;2023-02-19T01:06:07;101213.13;;;2.61;98.01
65557;BME280;52200;53.490;14.376;2023-02-19T01:08:33;101202.22;;;2.56;97.81
65557;BME280;52200;53.490;14.376;2023-02-19T01:10:59;101207.00;;;2.39;98.80
65557;BME280;52200;53.490;14.376;2023-02-19T01:13:25;101202.81;;;2.38;99.89
65557;BME280;52200;53.490;14.376;2023-02-19T01:15:51;101196.22;;;2.46;98.95
65557;BME280;52200;53.490;14.376;2023-02-19T01:18:16;101201.22;;;2.46;98.79
65557;BME280;52200;53.490;14.376;2023-02-19T01:20:43;101200.31;;;2.41;98.45
65557;BME280;52200;53.490;14.376;2023-02-19T01:23:12;101196.34;;;2.55;98.78
65557;BME280;52200;53.490;14.376;2023-02-19T01:25:39;101183.00;;;2.58;98.11
65557;BME280;52200;53.490;14.376;2023-02-19T01:28:09;101182.19;;;2.57;98.37
65557;BME280;52200;53.490;14.376;2023-02-19T01:30:36;101178.00;;;2.60;97.97
65557;BME280;52200;53.490;14.376;2023-02-19T01:33:03;101175.88;;;2.28;99.69
65557;BME280;52200;53.490;14.376;2023-02-19T01:35:29;101169.03;;;2.14;100.00
65557;BME280;52200;53.490;14.376;2023-02-19T01:37:54;101163.75;;;2.54;99.71
65557;BME280;52200;53.490;14.376;2023-02-19T01:40:19;101165.22;;;2.42;99.89
65557;BME280;52200;53.490;14.376;2023-02-19T01:42:44;101169.41;;;2.39;99.92
65557;BME280;52200;53.490;14.376;2023-02-19T01:45:28;101162.16;;;2.62;99.16
65557;BME280;52200;53.490;14.376;2023-02-19T01:48:10;101161.91;;;2.42;99.06
65557;BME280;52200;53.490;14.376;2023-02-19T01:51:03;101161.25;;;2.55;99.54
65557;BME280;52200;53.490;14.376;2023-02-19T01:53:35;101166.22;;;2.52;98.19
65557;BME280;52200;53.490;14.376;2023-02-19T01:56:02;101166.94;;;2.44;99.01
65557;BME280;52200;53.490;14.376;2023-02-19T01:58:31;101161.41;;;2.08;100.00
65557;BME280;52200;53.490;14.376;2023-02-19T02:00:58;101157.31;;;2.13;100.00
65557;BME280;52200;53.490;14.376;2023-02-19T02:03:24;101150.81;;;2.28;100.00
65557;BME280;52200;53.490;14.376;2023-02-19T02:06:01;101151.69;;;2.28;100.00
65557;BME280;52200;53.490;14.376;2023-02-19T02:08:27;101146.69;;;2.30;100.00
65557;BME280;52200;53.490;14.376;2023-02-19T02:11:12;101148.28;;;2.23;100.00
65557;BME280;52200;53.490;14.376;2023-02-19T02:13:39;101137.72;;;2.46;100.00
65557;BME280;52200;53.490;14.376;2023-02-19T02:18:59;101130.91;;;2.37;100.00
65557;BME280;52200;53.490;14.376;2023-02-19T02:32:14;101126.78;;;2.39;99.33
65557;BME280;52200;53.490;14.376;2023-02-19T02:34:48;101129.28;;;2.39;100.00
65557;BME280;52200;53.490;14.376;2023-02-19T02:37:17;101127.00;;;2.57;99.69
65557;BME280;52200;53.490;14.376;2023-02-19T02:39:44;101129.69;;;2.70;98.70
65557;BME280;52200;53.490;14.376;2023-02-19T02:42:10;101129.59;;;2.64;99.02
65557;BME280;52200;53.490;14.376;2023-02-19T02:44:51;101132.78;;;2.53;97.40
65557;BME280;52200;53.490;14.376;2023-02-19T02:47:43;101130.50;;;2.70;98.76
65557;BME280;52200;53.490;14.376;2023-02-19T02:50:22;101134.69;;;2.70;98.48
65557;BME280;52200;53.490;14.376;2023-02-19T02:52:51;101127.91;;;2.63;97.91
65557;BME280;52200;53.490;14.376;2023-02-19T02:55:41;101137.16;;;2.68;97.98
65557;BME280;52200;53.490;14.376;2023-02-19T02:58:09;101129.69;;;2.73;98.46
65557;BME280;52200;53.490;14.376;2023-02-19T03:00:36;101137.97;;;2.66;97.52
65557;BME280;52200;53.490;14.376;2023-02-19T03:03:23;101132.84;;;2.58;98.30
65557;BME280;52200;53.490;14.376;2023-02-19T03:05:51;101134.63;;;2.64;98.40
65557;BME280;52200;53.490;14.376;2023-02-19T03:13:46;101141.22;;;2.58;98.33
65557;BME280;52200;53.490;14.376;2023-02-19T03:16:35;101136.25;;;2.62;98.42
65557;BME280;52200;53.490;14.376;2023-02-19T03:19:22;101136.09;;;2.51;98.83
65557;BME280;52200;53.490;14.376;2023-02-19T03:21:57;101141.03;;;2.43;98.73
65557;BME280;52200;53.490;14.376;2023-02-19T03:24:29;101135.94;;;2.37;99.52
65557;BME280;52200;53.490;14.376;2023-02-19T03:27:16;101145.88;;;2.31;99.31
65557;BME280;52200;53.490;14.376;2023-02-19T03:29:46;101140.22;;;2.44;100.00
65557;BME280;52200;53.490;14.376;2023-02-19T03:32:20;101140.94;;;2.35;99.44
65557;BME280;52200;53.490;14.376;2023-02-19T03:34:55;101151.00;;;2.40;99.35
65557;BME280;52200;53.490;14.376;2023-02-19T03:37:31;101155.34;;;2.52;99.46
65557;BME280;52200;53.490;14.376;2023-02-19T03:39:58;101147.75;;;2.47;99.45
65557;BME280;52200;53.490;14.376;2023-02-19T03:42:45;101154.47;;;2.48;98.66
65557;BME280;52200;53.490;14.376;2023-02-19T03:45:30;101151.94;;;2.48;99.23
65557;BME280;52200;53.490;14.376;2023-02-19T03:50:45;101148.50;;;2.40;100.00
65557;BME280;52200;53.490;14.376;2023-02-19T03:53:25;101140.88;;;2.32;100.00
65557;BME280;52200;53.490;14.376;2023-02-19T03:56:08;101150.19;;;2.42;99.73
65557;BME280;52200;53.490;14.376;2023-02-19T03:58:58;101146.94;;;2.47;99.73
65557;BME280;52200;53.490;14.376;2023-02-19T04:01:40;101154.34;;;2.39;100.00
65557;BME280;52200;53.490;14.376;2023-02-19T04:04:30;101142.72;;;2.46;100.00
65557;BME280;52200;53.490;14.376;2023-02-19T04:06:57;101150.97;;;2.35;100.00
65557;BME280;52200;53.490;14.376;2023-02-19T04:09:29;101143.50;;;2.41;99.88
65557;BME280;52200;53.490;14.376;2023-02-19T04:11:57;101150.28;;;2.49;100.00
65557;BME280;52200;53.490;14.376;2023-02-19T04:14:27;101141.81;;;2.40;100.00
65557;BME280;52200;53.490;14.376;2023-02-19T04:17:00;101150.97;;;2.35;100.00
65557;BME280;52200;53.490;14.376;2023-02-19T04:19:28;101146.31;;;2.65;100.00
65557;BME280;52200;53.490;14.376;2023-02-19T04:21:57;101145.41;;;2.58;99.06
65557;BME280;52200;53.490;14.376;2023-02-19T04:24:39;101142.97;;;2.63;99.50
65557;BME280;52200;53.490;14.376;2023-02-19T04:27:05;101145.25;;;2.47;99.76
65557;BME280;52200;53.490;14.376;2023-02-19T04:29:32;101145.44;;;2.61;99.97
65557;BME280;52200;53.490;14.376;2023-02-19T04:31:58;101150.34;;;2.53;99.44
65557;BME280;52200;53.490;14.376;2023-02-19T04:34:23;101146.22;;;2.58;98.73
65557;BME280;52200;53.490;14.376;2023-02-19T04:36:49;101151.25;;;2.58;99.57
65557;BME280;52200;53.490;14.376;2023-02-19T04:39:14;101146.13;;;2.49;99.03
65557;BME280;52200;53.490;14.376;2023-02-19T04:41:39;101142.66;;;2.39;100.00
65557;BME280;52200;53.490;14.376;2023-02-19T04:44:05;101143.63;;;2.51;100.00
65557;BME280;52200;53.490;14.376;2023-02-19T04:46:30;101135.28;;;2.52;99.76
65557;BME280;52200;53.490;14.376;2023-02-19T04:48:56;101144.66;;;2.64;100.00
65557;BME280;52200;53.490;14.376;2023-02-19T04:51:21;101139.63;;;2.64;99.15
65557;BME280;52200;53.490;14.376;2023-02-19T04:53:46;101137.75;;;2.49;99.45
65557;BME280;52200;53.490;14.376;2023-02-19T04:56:14;101139.41;;;2.48;100.00
65557;BME280;52200;53.490;14.376;2023-02-19T04:58:41;101140.28;;;2.50;99.14
65557;BME280;52200;53.490;14.376;2023-02-19T05:01:07;101139.41;;;2.47;99.85
65557;BME280;52200;53.490;14.376;2023-02-19T05:03:33;101145.31;;;2.50;99.37
65557;BME280;52200;53.490;14.376;2023-02-19T05:06:06;101145.97;;;2.37;100.00
65557;BME280;52200;53.490;14.376;2023-02-19T05:08:32;101153.41;;;2.32;100.00
65557;BME280;52200;53.490;14.376;2023-02-19T05:11:02;101147.66;;;2.38;100.00
65557;BME280;52200;53.490;14.376;2023-02-19T05:13:28;101151.06;;;2.43;100.00
65557;BME280;52200;53.490;14.376;2023-02-19T05:15:57;101159.47;;;2.48;99.61
65557;BME280;52200;53.490;14.376;2023-02-19T05:18:23;101154.53;;;2.51;98.91
65557;BME280;52200;53.490;14.376;2023-02-19T05:20:49;101158.09;;;2.69;98.96
65557;BME280;52200;53.490;14.376;2023-02-19T05:23:15;101148.63;;;2.51;98.97
65557;BME280;52200;53.490;14.376;2023-02-19T05:25:40;101155.25;;;2.44;100.00
65557;BME280;52200;53.490;14.376;2023-02-19T05:28:05;101158.66;;;2.51;99.42
65557;BME280;52200;53.490;14.376;2023-02-19T05:33:09;101171.84;;;2.37;100.00
65557;BME280;52200;53.490;14.376;2023-02-19T05:35:42;101166.84;;;2.37;100.00
65557;BME280;52200;53.490;14.376;2023-02-19T05:38:07;101166.72;;;2.28;100.00
65557;BME280;52200;53.490;14.376;2023-02-19T05:40:33;101166.66;;;2.23;100.00
65557;BME280;52200;53.490;14.376;2023-02-19T05:42:59;101176.03;;;2.35;100.00
65557;BME280;52200;53.490;14.376;2023-02-19T05:45:24;101182.59;;;2.29;100.00
65557;BME280;52200;53.490;14.376;2023-02-19T05:47:50;101181.69;;;2.25;100.00
65557;BME280;52200;53.490;14.376;2023-02-19T05:50:15;101185.09;;;2.27;100.00
65557;BME280;52200;53.490;14.376;2023-02-19T05:52:40;101188.47;;;2.31;100.00
65557;BME280;52200;53.490;14.376;2023-02-19T05:55:07;101188.41;;;2.28;100.00
65557;BME280;52200;53.490;14.376;2023-02-19T05:57:32;101192.69;;;2.32;100.00
65557;BME280;52200;53.490;14.376;2023-02-19T05:59:58;101193.34;;;2.21;100.00
65557;BME280;52200;53.490;14.376;2023-02-19T06:02:23;101199.84;;;2.08;100.00
65557;BME280;52200;53.490;14.376;2023-02-19T06:04:48;101199.00;;;2.08;100.00
65557;BME280;52200;53.490;14.376;2023-02-19T06:07:14;101209.88;;;2.10;100.00
65557;BME280;52200;53.490;14.376;2023-02-19T06:09:39;101202.44;;;2.13;100.00
65557;BME280;52200;53.490;14.376;2023-02-19T06:12:04;101206.75;;;2.22;100.00
65557;BME280;52200;53.490;14.376;2023-02-19T06:14:32;101204.94;;;2.15;100.00
65557;BME280;52200;53.490;14.376;2023-02-19T06:16:57;101207.38;;;2.10;100.00
65557;BME280;52200;53.490;14.376;2023-02-19T06:19:22;101213.25;;;2.12;100.00
65557;BME280;52200;53.490;14.376;2023-02-19T06:21:49;101217.41;;;2.12;100.00
65557;BME280;52200;53.490;14.376;2023-02-19T06:24:14;101220.81;;;2.15;100.00
65557;BME280;52200;53.490;14.376;2023-02-19T06:26:40;101228.97;;;2.02;100.00
65557;BME280;52200;53.490;14.376;2023-02-19T06:29:05;101219.16;;;2.14;100.00
65557;BME280;52200;53.490;14.376;2023-02-19T06:31:30;101228.31;;;2.14;100.00
65557;BME280;52200;53.490;14.376;2023-02-19T06:33:56;101228.00;;;1.95;100.00
65557;BME280;52200;53.490;14.376;2023-02-19T06:36:22;101229.91;;;2.08;100.00
65557;BME280;52200;53.490;14.376;2023-02-19T06:38:47;101234.91;;;2.07;100.00
65557;BME280;52200;53.490;14.376;2023-02-19T06:41:13;101230.91;;;2.18;100.00
65557;BME280;52200;53.490;14.376;2023-02-19T06:43:39;101242.34;;;2.04;100.00
65557;BME280;52200;53.490;14.376;2023-02-19T06:46:06;101238.22;;;2.06;100.00
65557;BME280;52200;53.490;14.376;2023-02-19T06:48:33;101236.66;;;2.13;100.00
65557;BME280;52200;53.490;14.376;2023-02-19T06:50:58;101242.81;;;2.32;100.00
65557;BME280;52200;53.490;14.376;2023-02-19T06:53:24;101244.50;;;2.33;100.00
65557;BME280;52200;53.490;14.376;2023-02-19T06:56:03;101253.69;;;2.34;99.70
65557;BME280;52200;53.490;14.376;2023-02-19T06:58:29;101258.56;;;2.23;99.74
65557;BME280;52200;53.490;14.376;2023-02-19T07:00:55;101257.00;;;2.31;100.00
65557;BME280;52200;53.490;14.376;2023-02-19T07:03:21;101260.88;;;2.66;99.77
65557;BME280;52200;53.490;14.376;2023-02-19T07:05:47;101263.06;;;2.44;99.54
65557;BME280;52200;53.490;14.376;2023-02-19T07:08:12;101266.41;;;2.45;99.58
65557;BME280;52200;53.490;14.376;2023-02-19T07:10:38;101270.34;;;2.30;99.14
65557;BME280;52200;53.490;14.376;2023-02-19T07:13:03;101267.00;;;2.30;99.35
65557;BME280;52200;53.490;14.376;2023-02-19T07:15:28;101276.34;;;2.40;100.00
65557;BME280;52200;53.490;14.376;2023-02-19T07:17:54;101274.59;;;2.33;100.00
65557;BME280;52200;53.490;14.376;2023-02-19T07:20:19;101289.06;;;2.51;99.83
65557;BME280;52200;53.490;14.376;2023-02-19T07:22:44;101290.66;;;2.44;99.26
65557;BME280;52200;53.490;14.376;2023-02-19T07:25:10;101283.41;;;2.63;98.83
65557;BME280;52200;53.490;14.376;2023-02-19T07:27:35;101285.13;;;2.65;98.68
65557;BME280;52200;53.490;14.376;2023-02-19T07:30:02;101288.09;;;2.42;98.44
65557;BME280;52200;53.490;14.376;2023-02-19T07:32:27;101297.56;;;2.59;98.92
65557;BME280;52200;53.490;14.376;2023-02-19T07:34:53;101292.28;;;2.42;98.37
65557;BME280;52200;53.490;14.376;2023-02-19T07:37:18;101298.31;;;2.53;98.33
65557;BME280;52200;53.490;14.376;2023-02-19T07:39:43;101296.59;;;2.52;98.44
65557;BME280;52200;53.490;14.376;2023-02-19T07:42:09;101298.00;;;2.35;99.16
65557;BME280;52200;53.490;14.376;2023-02-19T07:44:34;101296.56;;;2.49;98.46
65557;BME280;52200;53.490;14.376;2023-02-19T07:46:59;101307.00;;;2.74;97.42
65557;BME280;52200;53.490;14.376;2023-02-19T07:49:25;101314.59;;;2.79;96.55
65557;BME280;52200;53.490;14.376;2023-02-19T07:51:50;101313.00;;;2.84;96.87
65557;BME280;52200;53.490;14.376;2023-02-19T07:54:15;101322.75;;;2.67;97.13
65557;BME280;52200;53.490;14.376;2023-02-19T07:56:41;101329.66;;;2.80;96.64
65557;BME280;52200;53.490;14.376;2023-02-19T07:59:06;101327.78;;;2.68;97.12
65557;BME280;52200;53.490;14.376;2023-02-19T08:01:31;101324.34;;;2.62;97.19
65557;BME280;52200;53.490;14.376;2023-02-19T08:04:15;101328.97;;;2.90;96.94
65557;BME280;52200;53.490;14.376;2023-02-19T08:06:41;101340.69;;;2.92;95.22
65557;BME280;52200;53.490;14.376;2023-02-19T08:09:08;101343.38;;;3.02;95.62
65557;BME280;52200;53.490;14.376;2023-02-19T08:11:33;101352.28;;;2.83;95.33
65557;BME280;52200;53.490;14.376;2023-02-19T08:14:17;101360.59;;;2.81;96.03
65557;BME280;52200;53.490;14.376;2023-02-19T08:16:49;101361.56;;;2.87;95.17
65557;BME280;52200;53.490;14.376;2023-02-19T08:19:15;101371.69;;;2.94;95.73
65557;BME280;52200;53.490;14.376;2023-02-19T08:21:40;101374.19;;;2.94;95.90
65557;BME280;52200;53.490;14.376;2023-02-19T08:24:06;101382.38;;;2.83;95.59
65557;BME280;52200;53.490;14.376;2023-02-19T08:26:32;101390.97;;;2.98;94.93
65557;BME280;52200;53.490;14.376;2023-02-19T08:28:57;101391.13;;;3.07;94.68
65557;BME280;52200;53.490;14.376;2023-02-19T08:31:23;101391.84;;;3.00;94.10
65557;BME280;52200;53.490;14.376;2023-02-19T08:33:49;101391.13;;;3.07;94.35
65557;BME280;52200;53.490;14.376;2023-02-19T08:36:14;101399.50;;;3.09;93.70
65557;BME280;52200;53.490;14.376;2023-02-19T08:38:40;101407.94;;;3.14;92.83
65557;BME280;52200;53.490;14.376;2023-02-19T08:41:11;101424.16;;;3.35;92.14
65557;BME280;52200;53.490;14.376;2023-02-19T08:43:37;101423.53;;;3.48;91.92
65557;BME280;52200;53.490;14.376;2023-02-19T08:46:03;101422.38;;;3.28;90.93
65557;BME280;52200;53.490;14.376;2023-02-19T08:48:28;101421.88;;;3.50;89.76
65557;BME280;52200;53.490;14.376;2023-02-19T08:51:01;101426.28;;;3.67;90.32
65557;BME280;52200;53.490;14.376;2023-02-19T08:53:29;101432.03;;;3.60;89.35
65557;BME280;52200;53.490;14.376;2023-02-19T08:55:54;101426.59;;;3.90;87.84
65557;BME280;52200;53.490;14.376;2023-02-19T08:58:19;101441.25;;;3.59;86.26
65557;BME280;52200;53.490;14.376;2023-02-19T09:00:45;101440.50;;;3.65;86.48
65557;BME280;52200;53.490;14.376;2023-02-19T09:03:11;101447.19;;;3.63;85.97
65557;BME280;52200;53.490;14.376;2023-02-19T09:05:37;101445.66;;;3.74;86.04
65557;BME280;52200;53.490;14.376;2023-02-19T09:08:03;101454.91;;;3.78;85.77
65557;BME280;52200;53.490;14.376;2023-02-19T09:10:28;101457.78;;;4.06;84.91
65557;BME280;52200;53.490;14.376;2023-02-19T09:12:53;101467.88;;;4.09;84.12
65557;BME280;52200;53.490;14.376;2023-02-19T09:15:18;101476.06;;;3.94;82.61
65557;BME280;52200;53.490;14.376;2023-02-19T09:17:50;101466.94;;;4.01;82.99
65557;BME280;52200;53.490;14.376;2023-02-19T09:20:16;101472.00;;;4.04;82.29
65557;BME280;52200;53.490;14.376;2023-02-19T09:22:42;101476.88;;;3.93;83.00
65557;BME280;52200;53.490;14.376;2023-02-19T09:25:07;101486.41;;;4.16;82.35
65557;BME280;52200;53.490;14.376;2023-02-19T09:27:32;101486.59;;;4.33;80.56
65557;BME280;52200;53.490;14.376;2023-02-19T09:29:58;101483.28;;;4.37;79.66
65557;BME280;52200;53.490;14.376;2023-02-19T09:32:23;101483.22;;;4.31;79.88
65557;BME280;52200;53.490;14.376;2023-02-19T09:34:49;101480.72;;;4.34;78.52
65557;BME280;52200;53.490;14.376;2023-02-19T09:37:14;101485.19;;;4.58;79.13
65557;BME280;52200;53.490;14.376;2023-02-19T09:39:39;101486.09;;;4.63;77.39
65557;BME280;52200;53.490;14.376;2023-02-19T09:42:14;101484.47;;;4.70;76.78
65557;BME280;52200;53.490;14.376;2023-02-19T09:44:45;101477.63;;;4.57;77.74
65557;BME280;52200;53.490;14.376;2023-02-19T09:47:16;101492.38;;;4.26;77.42
65557;BME280;52200;53.490;14.376;2023-02-19T09:49:45;101494.69;;;4.09;78.33
65557;BME280;52200;53.490;14.376;2023-02-19T09:52:40;101510.09;;;4.35;77.25
65557;BME280;52200;53.490;14.376;2023-02-19T09:55:38;101509.34;;;4.45;75.45
65557;BME280;52200;53.490;14.376;2023-02-19T09:58:26;101517.63;;;4.35;73.84
65557;BME280;52200;53.490;14.376;2023-02-19T10:00:55;101512.06;;;4.61;74.92
65557;BME280;52200;53.490;14.376;2023-02-19T10:03:29;101523.81;;;4.62;74.35
65557;BME280;52200;53.490;14.376;2023-02-19T10:08:37;101530.25;;;4.38;72.95
65557;BME280;52200;53.490;14.376;2023-02-19T10:11:03;101536.06;;;4.35;73.86
65557;BME280;52200;53.490;14.376;2023-02-19T10:13:33;101535.38;;;4.47;74.46
65557;BME280;52200;53.490;14.376;2023-02-19T10:16:02;101537.44;;;4.79;73.71
65557;BME280;52200;53.490;14.376;2023-02-19T10:18:35;101545.06;;;4.89;72.89
65557;BME280;52200;53.490;14.376;2023-02-19T10:21:02;101558.78;;;5.19;72.82
65557;BME280;52200;53.490;14.376;2023-02-19T10:23:27;101559.47;;;5.02;71.94
65557;BME280;52200;53.490;14.376;2023-02-19T10:25:57;101569.19;;;4.71;71.09
65557;BME280;52200;53.490;14.376;2023-02-19T10:28:29;101565.97;;;4.81;70.67
65557;BME280;52200;53.490;14.376;2023-02-19T10:30:57;101556.81;;;4.87;70.56
65557;BME280;52200;53.490;14.376;2023-02-19T10:33:23;101566.13;;;4.97;70.41
65557;BME280;52200;53.490;14.376;2023-02-19T10:35:55;101575.56;;;5.15;69.84
65557;BME280;52200;53.490;14.376;2023-02-19T10:38:44;101587.72;;;5.62;70.21
65557;BME280;52200;53.490;14.376;2023-02-19T10:41:14;101587.69;;;5.61;68.22
65557;BME280;52200;53.490;14.376;2023-02-19T10:43:54;101588.38;;;5.44;69.88
65557;BME280;52200;53.490;14.376;2023-02-19T10:46:23;101597.97;;;5.84;70.32
65557;BME280;52200;53.490;14.376;2023-02-19T10:49:01;101604.03;;;6.09;68.53
65557;BME280;52200;53.490;14.376;2023-02-19T10:51:34;101605.84;;;6.32;66.27
65557;BME280;52200;53.490;14.376;2023-02-19T10:54:13;101605.84;;;6.27;66.85
65557;BME280;52200;53.490;14.376;2023-02-19T10:56:40;101615.78;;;6.04;67.07
65557;BME280;52200;53.490;14.376;2023-02-19T10:59:25;101616.50;;;5.89;66.30
65557;BME280;52200;53.490;14.376;2023-02-19T11:01:54;101605.53;;;5.86;66.63
65557;BME280;52200;53.490;14.376;2023-02-19T11:04:20;101624.75;;;5.73;65.07
65557;BME280;52200;53.490;14.376;2023-02-19T11:06:45;101620.47;;;5.61;64.56
65557;BME280;52200;53.490;14.376;2023-02-19T11:09:38;101621.09;;;5.37;65.60
65557;BME280;52200;53.490;14.376;2023-02-19T11:12:05;101624.09;;;5.02;66.52
65557;BME280;52200;53.490;14.376;2023-02-19T11:14:32;101619.50;;;5.46;64.62
65557;BME280;52200;53.490;14.376;2023-02-19T11:17:01;101620.50;;;5.65;64.12
65557;BME280;52200;53.490;14.376;2023-02-19T11:21:59;101635.78;;;5.86;63.94
65557;BME280;52200;53.490;14.376;2023-02-19T11:24:34;101635.19;;;6.13;62.34
65557;BME280;52200;53.490;14.376;2023-02-19T11:27:04;101630.16;;;6.19;64.08
65557;BME280;52200;53.490;14.376;2023-02-19T11:29:31;101643.69;;;6.31;63.57
65557;BME280;52200;53.490;14.376;2023-02-19T11:32:28;101647.06;;;6.34;63.90
65557;BME280;52200;53.490;14.376;2023-02-19T11:35:32;101666.13;;;5.95;64.25
65557;BME280;52200;53.490;14.376;2023-02-19T11:37:59;101672.72;;;5.79;64.49
65557;BME280;52200;53.490;14.376;2023-02-19T11:43:42;101657.09;;;6.22;62.75
65557;BME280;52200;53.490;14.376;2023-02-19T11:46:29;101660.56;;;6.36;63.42
65557;BME280;52200;53.490;14.376;2023-02-19T11:54:39;101671.53;;;6.44;63.02
65557;BME280;52200;53.490;14.376;2023-02-19T11:57:18;101664.78;;;6.40;62.99
65557;BME280;52200;53.490;14.376;2023-02-19T12:00:01;101655.50;;;6.39;62.50
65557;BME280;52200;53.490;14.376;2023-02-19T12:02:49;101671.47;;;6.35;62.38
65557;BME280;52200;53.490;14.376;2023-02-19T12:11:11;101680.84;;;6.59;61.84
65557;BME280;52200;53.490;14.376;2023-02-19T12:14:08;101695.41;;;7.05;62.67
65557;BME280;52200;53.490;14.376;2023-02-19T12:25:03;101702.56;;;6.31;63.65
65557;BME280;52200;53.490;14.376;2023-02-19T12:30:38;101699.84;;;6.06;63.15
65557;BME280;52200;53.490;14.376;2023-02-19T12:41:19;101711.09;;;5.48;63.84
65557;BME280;52200;53.490;14.376;2023-02-19T12:44:10;101725.41;;;5.51;64.71
65557;BME280;52200;53.490;14.376;2023-02-19T12:46:40;101727.78;;;5.40;64.06
65557;BME280;52200;53.490;14.376;2023-02-19T12:49:14;101735.06;;;5.17;63.71
65557;BME280;52200;53.490;14.376;2023-02-19T12:51:48;101739.00;;;4.95;63.56
65557;BME280;52200;53.490;14.376;2023-02-19T12:56:53;101751.38;;;4.78;63.48
65557;BME280;52200;53.490;14.376;2023-02-19T12:59:26;101757.31;;;4.81;63.14
65557;BME280;52200;53.490;14.376;2023-02-19T13:02:05;101756.63;;;4.95;62.04
65557;BME280;52200;53.490;14.376;2023-02-19T13:04:56;101765.13;;;5.02;62.05
65557;BME280;52200;53.490;14.376;2023-02-19T13:07:28;101766.13;;;5.14;59.95
65557;BME280;52200;53.490;14.376;2023-02-19T13:10:12;101763.50;;;5.05;59.89
65557;BME280;52200;53.490;14.376;2023-02-19T13:12:42;101773.53;;;5.04;60.50
65557;BME280;52200;53.490;14.376;2023-02-19T13:15:28;101776.81;;;4.96;61.20
65557;BME280;52200;53.490;14.376;2023-02-19T13:17:58;101783.50;;;4.96;61.43
65557;BME280;52200;53.490;14.376;2023-02-19T13:20:36;101781.22;;;5.13;62.30
65557;BME280;52200;53.490;14.376;2023-02-19T13:23:16;101790.25;;;4.98;61.88
65557;BME280;52200;53.490;14.376;2023-02-19T13:29:14;101792.22;;;4.60;62.09
65557;BME280;52200;53.490;14.376;2023-02-19T13:37:02;101786.78;;;4.35;62.36
65557;BME280;52200;53.490;14.376;2023-02-19T13:39:29;101790.09;;;4.32;62.39
65557;BME280;52200;53.490;14.376;2023-02-19T13:41:56;101782.75;;;4.45;61.63
65557;BME280;52200;53.490;14.376;2023-02-19T13:44:28;101782.59;;;4.35;62.09
65557;BME280;52200;53.490;14.376;2023-02-19T13:46:54;101789.22;;;4.30;61.68
65557;BME280;52200;53.490;14.376;2023-02-19T14:01:01;101799.63;;;4.50;61.65
65557;BME280;52200;53.490;14.376;2023-02-19T14:06:06;101811.41;;;4.53;58.68
65557;BME280;52200;53.490;14.376;2023-02-19T14:11:10;101806.38;;;4.53;59.18
65557;BME280;52200;53.490;14.376;2023-02-19T14:16:31;101814.25;;;4.75;60.54
65557;BME280;52200;53.490;14.376;2023-02-19T14:18:59;101809.28;;;4.79;60.19
65557;BME280;52200;53.490;14.376;2023-02-19T14:21:34;101815.16;;;4.78;60.73
65557;BME280;52200;53.490;14.376;2023-02-19T14:24:00;101808.56;;;4.88;60.39
65557;BME280;52200;53.490;14.376;2023-02-19T14:26:26;101825.28;;;4.83;60.06
65557;BME280;52200;53.490;14.376;2023-02-19T14:28:55;101804.34;;;4.87;60.69
65557;BME280;52200;53.490;14.376;2023-02-19T14:31:29;101810.28;;;4.91;60.39
65557;BME280;52200;53.490;14.376;2023-02-19T14:34:04;101801.09;;;4.94;60.18
65557;BME280;52200;53.490;14.376;2023-02-19T14:39:03;101809.66;;;5.04;59.71